Aérodrome :
LOGIN :

S'inscrire | Disclaimer

   EN    FR    IT 

 










Légende :    VFR   VFR Marginal   IFR   IFR Intensif   IFR Très Intensif
Visi : 
Plafond : 
>= 8 km
>= 3000ft
5 à 8 km
1000 à 3000 ft
1500m à 5 km
500 à 1000 ft
800 à 1500m
200 à 500 ft
< 800m
< 200 ft
Symboles :   Orages  Brouillard  Fortes neiges  Fortes précipitations  Vent > 20 kt
SIGMETs :   Divers  Orages  Givrage  Turbulence  Onde Orograph.  Cendres Volcan.







- Altitude de l'aérodrome : 32 ft
- Code IATA : LKZ


EGUL - RAF Lakenheath

DERNIER METAR :
  • 240358Z AUTO 23005KT 9999 CLR 12/12 A2995 RMK AO2 SLP145 T01160116

METARs EXPIRÉS :
  • 240258Z AUTO 23008KT 9999 CLR 13/13 A2995 RMK AO2 SLP145 T01250125 52006
  • 240158Z AUTO 23007KT 9999 CLR 12/12 A2995 RMK AO2 SLP145 T01220122

TAF TAF EGUL
Valide du 24 à 04h jusqu'au 25 à 10h UTC


240411Z 2404/2510 24012KT 9999 BKN030 QNH2996INS
BECMG 2501/2502 25006KT 9999 SCT030 QNH3004INS TX20/2412Z TN10/2503Z
Pas de NOTAMs connus pour ce terrain.



MET'MAP, la Météo Aéronautique d'un coup d'oeil ! - Copyright ORBIFLY Décembre 2007 - Disclaimer

ORBIFLY MET'MAP TEAM :

Programmation & Développement : Alexandra Zaïnal
Conception & Développement : Baudouin d'Aumeries
Co-Programmation & Développement : Marc-Olivier Méhu
Soutien technique & logistique : Manuel Goepfert

Contact : metmap@orbifly.com




SOURCES & CREDITS :

   NOAA